Goch-Asperden Airport

METAR EHDL TAF EHVK
-1 °C
°C
-
°C
11m
Wiek
00:06:26
LT
23:06
UTC
0 ft

1.000

2.000

3.000

4.000

5.000

IFR
<?= Yii::t('app', 'Wind direction') ?> <?= Yii::t('app', 'of'); ?>
090°
08:08
Wschód słońca
100%
Wilgotność
Siła wiatru
Zamknięte/Śnieg
Zasięg wzroku na RWY
Stan RWY
Widzialność pionowa
Min. widoczność
CAVOK
Trend
Korekta
Raport specjalny
1039 hPa
QNH
METAR EHDL 062255Z AUTO 09002KT 4100 BR NCD M01/M01 Q1039 GRN
Zamglenie
0 kt
0 kt
00:00
LIFR
4 kt
01:00
LIFR
4 kt
02:00
LIFR
4 kt
03:00
LIFR
4 kt
04:00
LIFR
4 kt
05:00
LIFR
4 kt
06:00
LIFR
4 kt
4,1 km
Widoczność
Brak
Sufit
2 kt
Wiatr
metar-taf.com/EDLG

Metar-Taf.com

Dekoder wizualny

My i strony trzecie śledzimy Twoje zachowanie internetowe na naszej stronie za pomocą plików cookie. Jeśli kontynuujesz, zakładamy, że zgadzasz się z naszymi polityka plików cookie.